sensor_id;sensor_type;location;lat;lon;timestamp;P1;durP1;ratioP1;P2;durP2;ratioP2
60436;SDS011;46289;51.992;4.498;2023-07-24T00:01:44;10.18;;;4.15;;
60436;SDS011;46289;51.992;4.498;2023-07-24T00:03:49;8.65;;;4.07;;
60436;SDS011;46289;51.992;4.498;2023-07-24T00:05:59;9.38;;;3.78;;
60436;SDS011;46289;51.992;4.498;2023-07-24T00:08:04;8.48;;;3.67;;
60436;SDS011;46289;51.992;4.498;2023-07-24T00:10:11;8.80;;;4.28;;
60436;SDS011;46289;51.992;4.498;2023-07-24T00:12:17;9.07;;;3.90;;
60436;SDS011;46289;51.992;4.498;2023-07-24T00:14:22;9.07;;;4.00;;
60436;SDS011;46289;51.992;4.498;2023-07-24T00:16:31;9.90;;;4.80;;
60436;SDS011;46289;51.992;4.498;2023-07-24T00:18:37;9.55;;;4.30;;
60436;SDS011;46289;51.992;4.498;2023-07-24T00:20:42;8.52;;;4.85;;
60436;SDS011;46289;51.992;4.498;2023-07-24T00:22:48;9.98;;;4.45;;
60436;SDS011;46289;51.992;4.498;2023-07-24T00:24:53;8.15;;;3.95;;
60436;SDS011;46289;51.992;4.498;2023-07-24T00:26:59;8.85;;;4.47;;
60436;SDS011;46289;51.992;4.498;2023-07-24T00:29:04;10.10;;;3.88;;
60436;SDS011;46289;51.992;4.498;2023-07-24T00:31:09;10.00;;;3.72;;
60436;SDS011;46289;51.992;4.498;2023-07-24T00:33:15;8.90;;;3.53;;
60436;SDS011;46289;51.992;4.498;2023-07-24T00:35:20;10.07;;;4.30;;
60436;SDS011;46289;51.992;4.498;2023-07-24T00:37:25;8.50;;;4.57;;
60436;SDS011;46289;51.992;4.498;2023-07-24T00:39:28;8.55;;;4.18;;
60436;SDS011;46289;51.992;4.498;2023-07-24T00:41:33;10.38;;;4.75;;
60436;SDS011;46289;51.992;4.498;2023-07-24T00:43:40;10.48;;;4.47;;
60436;SDS011;46289;51.992;4.498;2023-07-24T00:45:45;9.00;;;4.22;;
60436;SDS011;46289;51.992;4.498;2023-07-24T00:47:55;9.18;;;4.15;;
60436;SDS011;46289;51.992;4.498;2023-07-24T00:50:00;9.55;;;4.22;;
60436;SDS011;46289;51.992;4.498;2023-07-24T00:52:07;10.68;;;4.70;;
60436;SDS011;46289;51.992;4.498;2023-07-24T00:54:13;9.88;;;4.22;;
60436;SDS011;46289;51.992;4.498;2023-07-24T00:56:21;8.48;;;4.13;;
60436;SDS011;46289;51.992;4.498;2023-07-24T00:58:26;9.68;;;3.95;;
60436;SDS011;46289;51.992;4.498;2023-07-24T01:00:36;7.90;;;4.20;;
60436;SDS011;46289;51.992;4.498;2023-07-24T01:02:45;8.15;;;4.35;;
60436;SDS011;46289;51.992;4.498;2023-07-24T01:04:51;8.98;;;3.80;;
60436;SDS011;46289;51.992;4.498;2023-07-24T01:06:56;9.32;;;3.90;;
60436;SDS011;46289;51.992;4.498;2023-07-24T01:09:04;8.65;;;4.28;;
60436;SDS011;46289;51.992;4.498;2023-07-24T01:11:09;9.70;;;4.25;;
60436;SDS011;46289;51.992;4.498;2023-07-24T01:13:20;7.78;;;4.00;;
60436;SDS011;46289;51.992;4.498;2023-07-24T01:15:30;7.53;;;4.10;;
60436;SDS011;46289;51.992;4.498;2023-07-24T01:17:42;9.27;;;4.38;;
60436;SDS011;46289;51.992;4.498;2023-07-24T01:19:52;8.80;;;4.20;;
60436;SDS011;46289;51.992;4.498;2023-07-24T01:22:02;9.80;;;4.35;;
60436;SDS011;46289;51.992;4.498;2023-07-24T01:24:17;10.60;;;4.75;;
60436;SDS011;46289;51.992;4.498;2023-07-24T01:26:39;9.02;;;4.47;;
60436;SDS011;46289;51.992;4.498;2023-07-24T01:28:45;9.23;;;4.03;;
60436;SDS011;46289;51.992;4.498;2023-07-24T01:30:50;9.73;;;4.28;;
60436;SDS011;46289;51.992;4.498;2023-07-24T01:32:56;10.88;;;5.20;;
60436;SDS011;46289;51.992;4.498;2023-07-24T01:35:01;10.10;;;5.00;;
60436;SDS011;46289;51.992;4.498;2023-07-24T01:37:07;12.18;;;5.25;;
60436;SDS011;46289;51.992;4.498;2023-07-24T01:39:12;9.88;;;4.65;;
60436;SDS011;46289;51.992;4.498;2023-07-24T01:41:19;10.48;;;4.25;;
60436;SDS011;46289;51.992;4.498;2023-07-24T01:43:28;12.10;;;4.82;;
60436;SDS011;46289;51.992;4.498;2023-07-24T01:45:36;10.32;;;4.85;;
60436;SDS011;46289;51.992;4.498;2023-07-24T01:47:46;10.13;;;5.15;;
60436;SDS011;46289;51.992;4.498;2023-07-24T01:49:51;10.50;;;5.53;;
60436;SDS011;46289;51.992;4.498;2023-07-24T01:51:56;9.93;;;4.82;;
60436;SDS011;46289;51.992;4.498;2023-07-24T01:54:03;10.38;;;5.30;;
60436;SDS011;46289;51.992;4.498;2023-07-24T01:56:08;11.77;;;5.55;;
60436;SDS011;46289;51.992;4.498;2023-07-24T01:58:14;12.25;;;5.68;;
60436;SDS011;46289;51.992;4.498;2023-07-24T02:00:22;11.07;;;5.22;;
60436;SDS011;46289;51.992;4.498;2023-07-24T02:02:29;10.60;;;4.47;;
60436;SDS011;46289;51.992;4.498;2023-07-24T02:04:45;10.82;;;5.28;;
60436;SDS011;46289;51.992;4.498;2023-07-24T02:06:51;11.70;;;5.65;;
60436;SDS011;46289;51.992;4.498;2023-07-24T02:08:56;14.75;;;5.28;;
60436;SDS011;46289;51.992;4.498;2023-07-24T02:11:01;10.75;;;5.00;;
60436;SDS011;46289;51.992;4.498;2023-07-24T02:13:06;11.43;;;5.13;;
60436;SDS011;46289;51.992;4.498;2023-07-24T02:15:11;10.35;;;4.97;;
60436;SDS011;46289;51.992;4.498;2023-07-24T02:17:23;11.10;;;5.07;;
60436;SDS011;46289;51.992;4.498;2023-07-24T02:19:28;11.10;;;4.95;;
60436;SDS011;46289;51.992;4.498;2023-07-24T02:21:36;11.98;;;5.38;;
60436;SDS011;46289;51.992;4.498;2023-07-24T02:23:42;14.98;;;5.20;;
60436;SDS011;46289;51.992;4.498;2023-07-24T02:25:50;12.82;;;5.22;;
60436;SDS011;46289;51.992;4.498;2023-07-24T02:27:55;11.00;;;5.93;;
60436;SDS011;46289;51.992;4.498;2023-07-24T02:30:01;14.57;;;5.35;;
60436;SDS011;46289;51.992;4.498;2023-07-24T02:32:07;12.77;;;6.20;;
60436;SDS011;46289;51.992;4.498;2023-07-24T02:34:17;14.13;;;5.50;;
60436;SDS011;46289;51.992;4.498;2023-07-24T02:36:26;12.43;;;5.22;;
60436;SDS011;46289;51.992;4.498;2023-07-24T02:38:32;11.30;;;5.72;;
60436;SDS011;46289;51.992;4.498;2023-07-24T02:40:40;12.88;;;5.10;;
60436;SDS011;46289;51.992;4.498;2023-07-24T02:42:46;14.30;;;4.82;;
60436;SDS011;46289;51.992;4.498;2023-07-24T02:44:51;11.40;;;5.60;;
60436;SDS011;46289;51.992;4.498;2023-07-24T02:46:56;12.05;;;5.20;;
60436;SDS011;46289;51.992;4.498;2023-07-24T02:49:01;10.90;;;4.85;;
60436;SDS011;46289;51.992;4.498;2023-07-24T02:51:10;10.45;;;5.15;;
60436;SDS011;46289;51.992;4.498;2023-07-24T02:53:16;13.27;;;5.15;;
60436;SDS011;46289;51.992;4.498;2023-07-24T02:55:21;9.95;;;5.45;;
60436;SDS011;46289;51.992;4.498;2023-07-24T02:57:26;13.27;;;5.70;;
60436;SDS011;46289;51.992;4.498;2023-07-24T02:59:32;9.55;;;5.43;;
60436;SDS011;46289;51.992;4.498;2023-07-24T03:01:38;10.88;;;5.10;;
60436;SDS011;46289;51.992;4.498;2023-07-24T03:03:44;12.57;;;5.68;;
60436;SDS011;46289;51.992;4.498;2023-07-24T03:05:46;11.25;;;5.25;;
60436;SDS011;46289;51.992;4.498;2023-07-24T03:07:54;11.98;;;5.63;;
60436;SDS011;46289;51.992;4.498;2023-07-24T03:09:59;14.07;;;5.10;;
60436;SDS011;46289;51.992;4.498;2023-07-24T03:12:05;11.77;;;5.13;;
60436;SDS011;46289;51.992;4.498;2023-07-24T03:14:12;13.45;;;5.18;;
60436;SDS011;46289;51.992;4.498;2023-07-24T03:16:18;15.52;;;5.63;;
60436;SDS011;46289;51.992;4.498;2023-07-24T03:18:23;10.52;;;5.18;;
60436;SDS011;46289;51.992;4.498;2023-07-24T03:20:30;12.25;;;5.47;;
60436;SDS011;46289;51.992;4.498;2023-07-24T03:22:37;12.68;;;5.30;;
60436;SDS011;46289;51.992;4.498;2023-07-24T03:24:45;11.52;;;4.85;;
60436;SDS011;46289;51.992;4.498;2023-07-24T03:26:50;10.82;;;4.80;;
60436;SDS011;46289;51.992;4.498;2023-07-24T03:28:55;12.40;;;5.50;;
60436;SDS011;46289;51.992;4.498;2023-07-24T03:31:00;11.27;;;4.90;;
60436;SDS011;46289;51.992;4.498;2023-07-24T03:33:06;13.48;;;5.10;;
60436;SDS011;46289;51.992;4.498;2023-07-24T03:35:13;10.70;;;4.72;;
60436;SDS011;46289;51.992;4.498;2023-07-24T03:37:19;11.77;;;4.65;;
60436;SDS011;46289;51.992;4.498;2023-07-24T03:39:24;12.00;;;4.93;;
60436;SDS011;46289;51.992;4.498;2023-07-24T03:41:32;10.95;;;4.22;;
60436;SDS011;46289;51.992;4.498;2023-07-24T03:43:38;11.27;;;4.35;;
60436;SDS011;46289;51.992;4.498;2023-07-24T03:45:43;16.65;;;3.97;;
60436;SDS011;46289;51.992;4.498;2023-07-24T03:47:48;9.88;;;4.30;;
60436;SDS011;46289;51.992;4.498;2023-07-24T03:49:53;11.00;;;4.57;;
60436;SDS011;46289;51.992;4.498;2023-07-24T03:51:58;12.02;;;5.05;;
60436;SDS011;46289;51.992;4.498;2023-07-24T03:54:03;11.10;;;4.63;;
60436;SDS011;46289;51.992;4.498;2023-07-24T03:56:08;11.45;;;4.18;;
60436;SDS011;46289;51.992;4.498;2023-07-24T03:58:16;11.88;;;4.72;;
60436;SDS011;46289;51.992;4.498;2023-07-24T04:00:21;12.07;;;4.35;;
60436;SDS011;46289;51.992;4.498;2023-07-24T04:02:30;13.85;;;4.38;;
60436;SDS011;46289;51.992;4.498;2023-07-24T04:04:37;13.25;;;4.47;;
60436;SDS011;46289;51.992;4.498;2023-07-24T04:06:42;16.20;;;4.63;;
60436;SDS011;46289;51.992;4.498;2023-07-24T04:08:48;11.57;;;4.90;;
60436;SDS011;46289;51.992;4.498;2023-07-24T04:10:53;11.68;;;4.30;;
60436;SDS011;46289;51.992;4.498;2023-07-24T04:12:59;9.23;;;4.07;;
60436;SDS011;46289;51.992;4.498;2023-07-24T04:15:09;12.30;;;4.30;;
60436;SDS011;46289;51.992;4.498;2023-07-24T04:17:14;12.35;;;4.32;;
60436;SDS011;46289;51.992;4.498;2023-07-24T04:19:19;14.02;;;4.90;;
60436;SDS011;46289;51.992;4.498;2023-07-24T04:21:26;9.95;;;4.82;;
60436;SDS011;46289;51.992;4.498;2023-07-24T04:23:32;8.88;;;4.30;;
60436;SDS011;46289;51.992;4.498;2023-07-24T04:27:39;10.75;;;4.35;;
60436;SDS011;46289;51.992;4.498;2023-07-24T04:29:44;12.48;;;4.60;;
60436;SDS011;46289;51.992;4.498;2023-07-24T04:31:52;9.77;;;4.50;;
60436;SDS011;46289;51.992;4.498;2023-07-24T04:33:54;14.35;;;5.00;;
60436;SDS011;46289;51.992;4.498;2023-07-24T04:36:02;10.23;;;4.10;;
60436;SDS011;46289;51.992;4.498;2023-07-24T04:38:08;9.88;;;4.00;;
60436;SDS011;46289;51.992;4.498;2023-07-24T04:40:13;10.70;;;4.22;;
60436;SDS011;46289;51.992;4.498;2023-07-24T04:42:21;10.93;;;4.55;;
60436;SDS011;46289;51.992;4.498;2023-07-24T04:44:28;12.05;;;4.38;;
60436;SDS011;46289;51.992;4.498;2023-07-24T04:46:33;10.60;;;4.47;;
60436;SDS011;46289;51.992;4.498;2023-07-24T04:48:44;11.07;;;4.25;;
60436;SDS011;46289;51.992;4.498;2023-07-24T04:50:52;13.80;;;4.20;;
60436;SDS011;46289;51.992;4.498;2023-07-24T04:53:00;12.60;;;4.38;;
60436;SDS011;46289;51.992;4.498;2023-07-24T04:55:07;11.30;;;4.28;;
60436;SDS011;46289;51.992;4.498;2023-07-24T04:57:12;15.55;;;5.13;;
60436;SDS011;46289;51.992;4.498;2023-07-24T04:59:17;11.52;;;3.78;;
60436;SDS011;46289;51.992;4.498;2023-07-24T05:01:22;15.73;;;4.80;;
60436;SDS011;46289;51.992;4.498;2023-07-24T05:03:30;13.38;;;4.63;;
60436;SDS011;46289;51.992;4.498;2023-07-24T05:05:39;12.68;;;4.60;;
60436;SDS011;46289;51.992;4.498;2023-07-24T05:07:48;12.30;;;3.73;;
60436;SDS011;46289;51.992;4.498;2023-07-24T05:09:53;9.70;;;3.63;;
60436;SDS011;46289;51.992;4.498;2023-07-24T05:11:58;10.50;;;3.80;;
60436;SDS011;46289;51.992;4.498;2023-07-24T05:14:03;8.90;;;3.67;;
60436;SDS011;46289;51.992;4.498;2023-07-24T05:16:08;11.93;;;4.68;;
60436;SDS011;46289;51.992;4.498;2023-07-24T05:18:18;12.85;;;4.32;;
60436;SDS011;46289;51.992;4.498;2023-07-24T05:20:23;13.13;;;4.78;;
60436;SDS011;46289;51.992;4.498;2023-07-24T05:22:32;11.45;;;4.30;;
60436;SDS011;46289;51.992;4.498;2023-07-24T05:24:39;10.38;;;4.35;;
60436;SDS011;46289;51.992;4.498;2023-07-24T05:26:44;10.70;;;3.50;;
60436;SDS011;46289;51.992;4.498;2023-07-24T05:28:50;7.10;;;2.92;;
60436;SDS011;46289;51.992;4.498;2023-07-24T05:30:55;9.20;;;4.28;;
60436;SDS011;46289;51.992;4.498;2023-07-24T05:33:01;7.40;;;3.42;;
60436;SDS011;46289;51.992;4.498;2023-07-24T05:35:08;8.05;;;2.88;;
60436;SDS011;46289;51.992;4.498;2023-07-24T05:37:13;8.80;;;3.45;;
60436;SDS011;46289;51.992;4.498;2023-07-24T05:39:21;9.75;;;3.65;;
60436;SDS011;46289;51.992;4.498;2023-07-24T05:41:26;11.63;;;3.38;;
60436;SDS011;46289;51.992;4.498;2023-07-24T05:43:32;8.88;;;3.40;;
60436;SDS011;46289;51.992;4.498;2023-07-24T05:45:38;11.05;;;4.18;;
60436;SDS011;46289;51.992;4.498;2023-07-24T05:47:44;10.88;;;4.00;;
60436;SDS011;46289;51.992;4.498;2023-07-24T05:49:49;12.05;;;3.55;;
60436;SDS011;46289;51.992;4.498;2023-07-24T05:51:54;7.50;;;3.08;;
60436;SDS011;46289;51.992;4.498;2023-07-24T05:54:00;11.43;;;4.18;;
60436;SDS011;46289;51.992;4.498;2023-07-24T05:56:08;12.52;;;4.63;;
60436;SDS011;46289;51.992;4.498;2023-07-24T05:58:13;11.23;;;4.03;;
60436;SDS011;46289;51.992;4.498;2023-07-24T06:00:19;9.75;;;4.15;;
60436;SDS011;46289;51.992;4.498;2023-07-24T06:02:25;11.95;;;3.55;;
60436;SDS011;46289;51.992;4.498;2023-07-24T06:04:30;12.07;;;3.90;;
60436;SDS011;46289;51.992;4.498;2023-07-24T06:06:38;9.40;;;3.65;;
60436;SDS011;46289;51.992;4.498;2023-07-24T06:08:46;8.73;;;3.35;;
60436;SDS011;46289;51.992;4.498;2023-07-24T06:10:52;9.05;;;3.58;;
60436;SDS011;46289;51.992;4.498;2023-07-24T06:13:01;9.57;;;3.63;;
60436;SDS011;46289;51.992;4.498;2023-07-24T06:15:09;8.13;;;3.38;;
60436;SDS011;46289;51.992;4.498;2023-07-24T06:17:17;10.88;;;4.10;;
60436;SDS011;46289;51.992;4.498;2023-07-24T06:19:22;7.25;;;3.30;;
60436;SDS011;46289;51.992;4.498;2023-07-24T06:21:31;9.07;;;3.50;;
60436;SDS011;46289;51.992;4.498;2023-07-24T06:23:37;10.00;;;4.07;;
60436;SDS011;46289;51.992;4.498;2023-07-24T06:25:43;10.73;;;3.50;;
60436;SDS011;46289;51.992;4.498;2023-07-24T06:27:48;10.52;;;4.03;;
60436;SDS011;46289;51.992;4.498;2023-07-24T06:29:56;8.95;;;3.78;;
60436;SDS011;46289;51.992;4.498;2023-07-24T06:32:15;8.68;;;3.70;;
60436;SDS011;46289;51.992;4.498;2023-07-24T06:34:21;9.63;;;4.65;;
60436;SDS011;46289;51.992;4.498;2023-07-24T06:36:26;10.05;;;3.97;;
60436;SDS011;46289;51.992;4.498;2023-07-24T06:38:31;11.80;;;3.88;;
60436;SDS011;46289;51.992;4.498;2023-07-24T06:40:38;10.80;;;4.00;;
60436;SDS011;46289;51.992;4.498;2023-07-24T06:42:43;8.82;;;3.53;;
60436;SDS011;46289;51.992;4.498;2023-07-24T06:44:48;11.27;;;3.90;;
60436;SDS011;46289;51.992;4.498;2023-07-24T06:46:56;10.32;;;4.05;;
60436;SDS011;46289;51.992;4.498;2023-07-24T06:49:03;11.20;;;4.43;;
60436;SDS011;46289;51.992;4.498;2023-07-24T06:51:09;10.27;;;4.20;;
60436;SDS011;46289;51.992;4.498;2023-07-24T06:53:14;13.25;;;4.10;;
60436;SDS011;46289;51.992;4.498;2023-07-24T06:55:19;10.88;;;3.47;;
60436;SDS011;46289;51.992;4.498;2023-07-24T06:57:25;7.47;;;3.38;;
60436;SDS011;46289;51.992;4.498;2023-07-24T06:59:31;8.63;;;3.53;;
60436;SDS011;46289;51.992;4.498;2023-07-24T07:01:37;10.27;;;4.40;;
60436;SDS011;46289;51.992;4.498;2023-07-24T07:03:45;7.53;;;3.92;;
60436;SDS011;46289;51.992;4.498;2023-07-24T07:05:50;9.75;;;3.67;;
60436;SDS011;46289;51.992;4.498;2023-07-24T07:07:55;9.40;;;4.20;;
60436;SDS011;46289;51.992;4.498;2023-07-24T07:10:00;11.00;;;3.95;;
60436;SDS011;46289;51.992;4.498;2023-07-24T07:12:07;10.93;;;4.13;;
60436;SDS011;46289;51.992;4.498;2023-07-24T07:14:12;10.35;;;4.05;;
60436;SDS011;46289;51.992;4.498;2023-07-24T07:16:18;7.35;;;4.20;;
60436;SDS011;46289;51.992;4.498;2023-07-24T07:18:23;8.60;;;4.00;;
60436;SDS011;46289;51.992;4.498;2023-07-24T07:20:31;7.78;;;3.58;;
60436;SDS011;46289;51.992;4.498;2023-07-24T07:22:37;9.20;;;3.80;;
60436;SDS011;46289;51.992;4.498;2023-07-24T07:24:42;13.32;;;4.90;;
60436;SDS011;46289;51.992;4.498;2023-07-24T07:26:49;8.07;;;3.83;;
60436;SDS011;46289;51.992;4.498;2023-07-24T07:28:54;9.00;;;3.83;;
60436;SDS011;46289;51.992;4.498;2023-07-24T07:31:01;7.93;;;3.38;;
60436;SDS011;46289;51.992;4.498;2023-07-24T07:33:03;8.25;;;3.85;;
60436;SDS011;46289;51.992;4.498;2023-07-24T07:35:09;9.93;;;3.78;;
60436;SDS011;46289;51.992;4.498;2023-07-24T07:37:17;8.80;;;3.88;;
60436;SDS011;46289;51.992;4.498;2023-07-24T07:39:22;8.57;;;4.55;;
60436;SDS011;46289;51.992;4.498;2023-07-24T07:41:29;11.52;;;3.78;;
60436;SDS011;46289;51.992;4.498;2023-07-24T07:43:33;9.70;;;4.03;;
60436;SDS011;46289;51.992;4.498;2023-07-24T07:45:39;8.57;;;3.70;;
60436;SDS011;46289;51.992;4.498;2023-07-24T07:47:44;7.05;;;3.55;;
60436;SDS011;46289;51.992;4.498;2023-07-24T07:49:47;12.35;;;4.07;;
60436;SDS011;46289;51.992;4.498;2023-07-24T07:51:52;11.95;;;3.83;;
60436;SDS011;46289;51.992;4.498;2023-07-24T07:54:02;6.10;;;3.53;;
60436;SDS011;46289;51.992;4.498;2023-07-24T07:56:09;7.90;;;3.53;;
60436;SDS011;46289;51.992;4.498;2023-07-24T07:58:14;8.95;;;3.85;;
60436;SDS011;46289;51.992;4.498;2023-07-24T08:00:20;8.43;;;3.60;;
60436;SDS011;46289;51.992;4.498;2023-07-24T08:02:28;11.25;;;4.00;;
60436;SDS011;46289;51.992;4.498;2023-07-24T08:04:34;9.30;;;3.88;;
60436;SDS011;46289;51.992;4.498;2023-07-24T08:06:40;9.38;;;3.50;;
60436;SDS011;46289;51.992;4.498;2023-07-24T08:08:45;8.88;;;4.22;;
60436;SDS011;46289;51.992;4.498;2023-07-24T08:10:54;8.20;;;3.67;;
60436;SDS011;46289;51.992;4.498;2023-07-24T08:13:02;10.70;;;4.25;;
60436;SDS011;46289;51.992;4.498;2023-07-24T08:15:09;8.07;;;3.67;;
60436;SDS011;46289;51.992;4.498;2023-07-24T08:17:15;8.48;;;3.22;;
60436;SDS011;46289;51.992;4.498;2023-07-24T08:19:20;8.45;;;3.15;;
60436;SDS011;46289;51.992;4.498;2023-07-24T08:21:39;4.97;;;3.50;;
60436;SDS011;46289;51.992;4.498;2023-07-24T08:23:44;9.52;;;3.35;;
60436;SDS011;46289;51.992;4.498;2023-07-24T08:25:55;7.00;;;3.42;;
60436;SDS011;46289;51.992;4.498;2023-07-24T08:28:00;6.00;;;3.58;;
60436;SDS011;46289;51.992;4.498;2023-07-24T08:30:07;9.00;;;3.70;;
60436;SDS011;46289;51.992;4.498;2023-07-24T08:32:13;7.70;;;3.88;;
60436;SDS011;46289;51.992;4.498;2023-07-24T08:34:18;7.90;;;3.58;;
60436;SDS011;46289;51.992;4.498;2023-07-24T08:36:23;9.20;;;3.78;;
60436;SDS011;46289;51.992;4.498;2023-07-24T08:38:32;7.35;;;3.03;;
60436;SDS011;46289;51.992;4.498;2023-07-24T08:40:41;9.57;;;3.80;;
60436;SDS011;46289;51.992;4.498;2023-07-24T08:42:49;8.43;;;3.72;;
60436;SDS011;46289;51.992;4.498;2023-07-24T08:44:55;10.10;;;3.78;;
60436;SDS011;46289;51.992;4.498;2023-07-24T08:47:00;9.30;;;4.15;;
60436;SDS011;46289;51.992;4.498;2023-07-24T08:49:11;10.15;;;3.65;;
60436;SDS011;46289;51.992;4.498;2023-07-24T08:51:16;8.48;;;4.18;;
60436;SDS011;46289;51.992;4.498;2023-07-24T08:53:23;10.48;;;3.35;;
60436;SDS011;46289;51.992;4.498;2023-07-24T08:55:35;7.18;;;3.83;;
60436;SDS011;46289;51.992;4.498;2023-07-24T08:57:43;9.65;;;3.72;;
60436;SDS011;46289;51.992;4.498;2023-07-24T08:59:51;8.98;;;3.42;;
60436;SDS011;46289;51.992;4.498;2023-07-24T09:01:59;6.57;;;4.00;;
60436;SDS011;46289;51.992;4.498;2023-07-24T09:04:04;7.93;;;4.00;;
60436;SDS011;46289;51.992;4.498;2023-07-24T09:06:11;7.90;;;3.63;;
60436;SDS011;46289;51.992;4.498;2023-07-24T09:08:16;9.25;;;3.47;;
60436;SDS011;46289;51.992;4.498;2023-07-24T09:10:23;8.65;;;3.00;;
60436;SDS011;46289;51.992;4.498;2023-07-24T09:12:30;5.93;;;3.03;;
60436;SDS011;46289;51.992;4.498;2023-07-24T09:14:37;10.63;;;3.45;;
60436;SDS011;46289;51.992;4.498;2023-07-24T09:16:50;8.50;;;3.50;;
60436;SDS011;46289;51.992;4.498;2023-07-24T09:19:15;7.40;;;3.92;;
60436;SDS011;46289;51.992;4.498;2023-07-24T09:21:27;7.00;;;3.85;;
60436;SDS011;46289;51.992;4.498;2023-07-24T09:23:38;11.15;;;4.05;;
60436;SDS011;46289;51.992;4.498;2023-07-24T09:25:45;11.65;;;3.97;;
60436;SDS011;46289;51.992;4.498;2023-07-24T09:27:50;9.23;;;3.45;;
60436;SDS011;46289;51.992;4.498;2023-07-24T09:29:56;6.65;;;3.22;;
60436;SDS011;46289;51.992;4.498;2023-07-24T09:32:04;11.52;;;3.78;;
60436;SDS011;46289;51.992;4.498;2023-07-24T09:34:13;6.43;;;3.45;;
60436;SDS011;46289;51.992;4.498;2023-07-24T09:36:17;9.50;;;3.30;;
60436;SDS011;46289;51.992;4.498;2023-07-24T09:38:22;8.27;;;3.65;;
60436;SDS011;46289;51.992;4.498;2023-07-24T09:40:28;6.80;;;3.47;;
60436;SDS011;46289;51.992;4.498;2023-07-24T09:42:43;6.97;;;3.50;;
60436;SDS011;46289;51.992;4.498;2023-07-24T09:45:09;8.40;;;3.88;;
60436;SDS011;46289;51.992;4.498;2023-07-24T09:47:18;8.15;;;3.67;;
60436;SDS011;46289;51.992;4.498;2023-07-24T09:49:43;8.40;;;3.67;;
60436;SDS011;46289;51.992;4.498;2023-07-24T09:51:49;10.45;;;4.20;;
60436;SDS011;46289;51.992;4.498;2023-07-24T09:54:01;12.30;;;4.22;;
60436;SDS011;46289;51.992;4.498;2023-07-24T09:56:17;8.48;;;3.55;;
60436;SDS011;46289;51.992;4.498;2023-07-24T09:58:39;7.95;;;3.45;;
60436;SDS011;46289;51.992;4.498;2023-07-24T10:00:45;7.95;;;3.13;;
60436;SDS011;46289;51.992;4.498;2023-07-24T10:02:53;7.20;;;3.15;;
60436;SDS011;46289;51.992;4.498;2023-07-24T10:05:00;6.97;;;3.67;;
60436;SDS011;46289;51.992;4.498;2023-07-24T10:07:09;10.43;;;3.70;;
60436;SDS011;46289;51.992;4.498;2023-07-24T10:09:14;8.50;;;3.65;;
60436;SDS011;46289;51.992;4.498;2023-07-24T10:11:23;8.02;;;4.10;;
60436;SDS011;46289;51.992;4.498;2023-07-24T10:13:33;8.07;;;4.00;;
60436;SDS011;46289;51.992;4.498;2023-07-24T10:15:39;7.57;;;3.72;;
60436;SDS011;46289;51.992;4.498;2023-07-24T10:17:46;8.15;;;4.10;;
60436;SDS011;46289;51.992;4.498;2023-07-24T10:20:01;8.45;;;3.50;;
60436;SDS011;46289;51.992;4.498;2023-07-24T10:22:19;7.28;;;4.13;;
60436;SDS011;46289;51.992;4.498;2023-07-24T10:24:28;10.93;;;4.18;;
60436;SDS011;46289;51.992;4.498;2023-07-24T10:26:42;8.80;;;4.00;;
60436;SDS011;46289;51.992;4.498;2023-07-24T10:28:48;9.60;;;4.18;;
60436;SDS011;46289;51.992;4.498;2023-07-24T10:30:54;8.15;;;3.90;;
60436;SDS011;46289;51.992;4.498;2023-07-24T10:33:04;8.25;;;3.60;;
60436;SDS011;46289;51.992;4.498;2023-07-24T10:35:16;7.78;;;3.33;;
60436;SDS011;46289;51.992;4.498;2023-07-24T10:37:30;8.88;;;3.85;;
60436;SDS011;46289;51.992;4.498;2023-07-24T10:39:38;7.30;;;3.55;;
60436;SDS011;46289;51.992;4.498;2023-07-24T10:41:44;9.63;;;4.43;;
60436;SDS011;46289;51.992;4.498;2023-07-24T10:43:51;7.38;;;3.50;;
60436;SDS011;46289;51.992;4.498;2023-07-24T10:45:57;6.05;;;3.30;;
60436;SDS011;46289;51.992;4.498;2023-07-24T10:48:05;7.93;;;3.38;;
60436;SDS011;46289;51.992;4.498;2023-07-24T10:50:13;8.40;;;3.92;;
60436;SDS011;46289;51.992;4.498;2023-07-24T10:52:29;10.68;;;3.95;;
60436;SDS011;46289;51.992;4.498;2023-07-24T10:54:35;9.07;;;3.50;;
60436;SDS011;46289;51.992;4.498;2023-07-24T10:56:41;7.70;;;3.50;;
60436;SDS011;46289;51.992;4.498;2023-07-24T10:58:52;7.80;;;3.75;;
60436;SDS011;46289;51.992;4.498;2023-07-24T11:01:02;6.53;;;3.10;;
60436;SDS011;46289;51.992;4.498;2023-07-24T11:03:09;9.30;;;4.10;;
60436;SDS011;46289;51.992;4.498;2023-07-24T11:05:16;8.05;;;4.18;;
60436;SDS011;46289;51.992;4.498;2023-07-24T11:07:18;7.53;;;3.85;;
60436;SDS011;46289;51.992;4.498;2023-07-24T11:09:39;6.85;;;3.50;;
60436;SDS011;46289;51.992;4.498;2023-07-24T11:11:49;6.38;;;3.58;;
60436;SDS011;46289;51.992;4.498;2023-07-24T11:13:56;7.50;;;4.20;;
60436;SDS011;46289;51.992;4.498;2023-07-24T11:16:05;7.63;;;4.30;;
60436;SDS011;46289;51.992;4.498;2023-07-24T11:18:12;7.55;;;3.90;;
60436;SDS011;46289;51.992;4.498;2023-07-24T11:20:18;9.40;;;3.95;;
60436;SDS011;46289;51.992;4.498;2023-07-24T11:22:25;9.88;;;4.88;;
60436;SDS011;46289;51.992;4.498;2023-07-24T11:24:30;9.38;;;3.70;;
60436;SDS011;46289;51.992;4.498;2023-07-24T11:26:42;8.52;;;3.95;;
60436;SDS011;46289;51.992;4.498;2023-07-24T11:28:48;7.65;;;4.13;;
60436;SDS011;46289;51.992;4.498;2023-07-24T11:30:54;8.23;;;4.70;;
60436;SDS011;46289;51.992;4.498;2023-07-24T11:33:08;7.97;;;4.37;;
60436;SDS011;46289;51.992;4.498;2023-07-24T11:35:19;7.20;;;4.15;;
60436;SDS011;46289;51.992;4.498;2023-07-24T11:37:29;6.97;;;3.85;;
60436;SDS011;46289;51.992;4.498;2023-07-24T11:39:37;5.95;;;3.35;;
60436;SDS011;46289;51.992;4.498;2023-07-24T11:41:45;7.55;;;3.55;;
60436;SDS011;46289;51.992;4.498;2023-07-24T11:43:50;7.03;;;3.78;;
60436;SDS011;46289;51.992;4.498;2023-07-24T11:45:56;7.97;;;3.55;;
60436;SDS011;46289;51.992;4.498;2023-07-24T11:47:59;6.18;;;3.10;;
60436;SDS011;46289;51.992;4.498;2023-07-24T11:50:07;6.95;;;3.42;;
60436;SDS011;46289;51.992;4.498;2023-07-24T11:52:13;7.50;;;3.28;;
60436;SDS011;46289;51.992;4.498;2023-07-24T11:54:19;5.15;;;3.00;;
60436;SDS011;46289;51.992;4.498;2023-07-24T11:56:25;8.43;;;3.47;;
60436;SDS011;46289;51.992;4.498;2023-07-24T11:58:33;6.20;;;3.42;;
60436;SDS011;46289;51.992;4.498;2023-07-24T12:00:38;6.88;;;3.03;;
60436;SDS011;46289;51.992;4.498;2023-07-24T12:02:45;5.43;;;3.13;;
60436;SDS011;46289;51.992;4.498;2023-07-24T12:04:53;4.82;;;2.92;;
60436;SDS011;46289;51.992;4.498;2023-07-24T12:07:01;4.97;;;2.75;;
60436;SDS011;46289;51.992;4.498;2023-07-24T12:09:11;7.18;;;3.22;;
60436;SDS011;46289;51.992;4.498;2023-07-24T12:11:17;5.38;;;2.88;;
60436;SDS011;46289;51.992;4.498;2023-07-24T12:13:23;6.53;;;3.42;;
60436;SDS011;46289;51.992;4.498;2023-07-24T12:15:31;7.05;;;3.00;;
60436;SDS011;46289;51.992;4.498;2023-07-24T12:17:37;7.30;;;3.22;;
60436;SDS011;46289;51.992;4.498;2023-07-24T12:19:44;6.15;;;2.88;;
60436;SDS011;46289;51.992;4.498;2023-07-24T12:21:49;9.52;;;3.85;;
60436;SDS011;46289;51.992;4.498;2023-07-24T12:23:54;8.35;;;3.50;;
60436;SDS011;46289;51.992;4.498;2023-07-24T12:26:00;8.90;;;4.05;;
60436;SDS011;46289;51.992;4.498;2023-07-24T12:28:05;7.38;;;3.13;;
60436;SDS011;46289;51.992;4.498;2023-07-24T12:30:11;8.38;;;3.70;;
60436;SDS011;46289;51.992;4.498;2023-07-24T12:32:19;11.13;;;4.00;;
60436;SDS011;46289;51.992;4.498;2023-07-24T12:34:26;8.18;;;3.17;;
60436;SDS011;46289;51.992;4.498;2023-07-24T12:36:31;6.40;;;3.05;;
60436;SDS011;46289;51.992;4.498;2023-07-24T12:38:40;5.22;;;2.97;;
60436;SDS011;46289;51.992;4.498;2023-07-24T12:40:45;6.03;;;3.00;;
60436;SDS011;46289;51.992;4.498;2023-07-24T12:42:51;7.30;;;3.00;;
60436;SDS011;46289;51.992;4.498;2023-07-24T12:44:58;5.63;;;3.08;;